createdAt,value
2022-11-21T00:01:21.459Z,100793.38
2022-11-21T00:03:49.883Z,100787.91
2022-11-21T00:06:18.658Z,100785.34
2022-11-21T00:08:47.361Z,100791.66
2022-11-21T00:11:17.495Z,100786.63
2022-11-21T00:13:45.724Z,100765.22
2022-11-21T00:16:15.800Z,100764.69
2022-11-21T00:18:44.767Z,100766.81
2022-11-21T00:21:16.611Z,100772.59
2022-11-21T00:23:45.089Z,100774.63
2022-11-21T00:26:14.527Z,100786.50
2022-11-21T00:28:44.532Z,100781.88
2022-11-21T00:31:20.572Z,100772.25
2022-11-21T00:33:48.966Z,100765.81
2022-11-21T00:36:17.211Z,100768.44
2022-11-21T00:38:45.354Z,100774.59
2022-11-21T00:41:13.591Z,100769.78
2022-11-21T00:43:43.187Z,100765.41
2022-11-21T00:46:11.316Z,100773.00
2022-11-21T00:48:39.632Z,100780.59
2022-11-21T00:51:07.879Z,100765.41
2022-11-21T00:53:36.045Z,100761.13
2022-11-21T00:56:04.312Z,100771.16
2022-11-21T00:58:32.567Z,100780.03
2022-11-21T01:01:07.215Z,100776.59
2022-11-21T01:03:36.104Z,100772.88
2022-11-21T01:06:05.518Z,100780.47
2022-11-21T01:08:33.887Z,100792.50
2022-11-21T01:11:04.734Z,100788.41
2022-11-21T01:13:33.275Z,100786.34
2022-11-21T01:16:06.352Z,100767.03
2022-11-21T01:18:34.876Z,100766.25
2022-11-21T01:21:03.461Z,100777.59
2022-11-21T01:23:31.819Z,100774.22
2022-11-21T01:26:03.342Z,100773.59
2022-11-21T01:28:31.908Z,100770.31
2022-11-21T01:31:06.707Z,100760.84
2022-11-21T01:33:35.360Z,100765.66
2022-11-21T01:36:11.473Z,100743.00
2022-11-21T01:38:40.059Z,100719.72
2022-11-21T01:41:08.584Z,100720.13
2022-11-21T01:43:36.903Z,100726.38
2022-11-21T01:46:14.507Z,100730.19
2022-11-21T01:48:46.799Z,100719.25
2022-11-21T01:51:19.265Z,100710.56
2022-11-21T01:53:50.827Z,100701.97
2022-11-21T01:56:19.169Z,100703.88
2022-11-21T01:58:48.910Z,100692.72
2022-11-21T02:01:18.991Z,100702.78
2022-11-21T02:03:48.147Z,100709.88
2022-11-21T02:06:16.464Z,100714.09
2022-11-21T02:08:45.633Z,100710.72
2022-11-21T02:11:18.949Z,100701.09
2022-11-21T02:13:46.997Z,100707.28
2022-11-21T02:16:15.185Z,100722.81
2022-11-21T02:18:44.752Z,100718.13
2022-11-21T02:21:19.799Z,100728.28
2022-11-21T02:23:59.050Z,100710.66
2022-11-21T02:26:30.073Z,100708.78
2022-11-21T02:28:58.537Z,100698.78
2022-11-21T02:31:27.018Z,100707.59
2022-11-21T02:33:55.221Z,100691.81
2022-11-21T02:36:39.056Z,100690.59
2022-11-21T02:39:08.612Z,100685.50
2022-11-21T02:41:40.856Z,100691.34
2022-11-21T02:44:12.267Z,100667.38
2022-11-21T02:46:48.610Z,100677.03
2022-11-21T02:49:18.785Z,100667.75
2022-11-21T02:51:46.964Z,100675.31
2022-11-21T02:54:15.125Z,100674.97
2022-11-21T02:56:44.924Z,100670.34
2022-11-21T02:59:13.215Z,100663.66
2022-11-21T03:01:41.603Z,100665.28
2022-11-21T03:04:09.918Z,100663.59
2022-11-21T03:06:38.093Z,100664.91
2022-11-21T03:09:06.277Z,100665.69
2022-11-21T03:11:34.574Z,100653.47
2022-11-21T03:14:04.223Z,100653.81
2022-11-21T03:16:32.412Z,100652.19
2022-11-21T03:19:00.738Z,100654.00
2022-11-21T03:21:28.899Z,100654.22
2022-11-21T03:23:57.123Z,100648.75
2022-11-21T03:26:25.508Z,100640.53
2022-11-21T03:28:53.698Z,100650.41
2022-11-21T03:31:23.287Z,100659.38
2022-11-21T03:33:51.879Z,100660.22
2022-11-21T03:36:20.144Z,100654.38
2022-11-21T03:38:48.433Z,100656.84
2022-11-21T03:41:31.716Z,100655.63
2022-11-21T03:44:00.613Z,100656.06
2022-11-21T03:46:31.372Z,100660.66
2022-11-21T03:48:59.778Z,100665.69
2022-11-21T03:51:28.366Z,100669.03
2022-11-21T03:53:56.988Z,100676.34
2022-11-21T03:56:25.542Z,100683.22
2022-11-21T03:58:54.158Z,100674.50
2022-11-21T04:01:22.816Z,100668.25
2022-11-21T04:03:52.897Z,100666.97
2022-11-21T04:06:22.990Z,100665.28
2022-11-21T04:08:51.357Z,100669.09
2022-11-21T04:11:21.539Z,100657.31
2022-11-21T04:13:49.815Z,100650.19
2022-11-21T04:16:17.979Z,100643.97
2022-11-21T04:18:46.321Z,100648.47
2022-11-21T04:21:16.099Z,100643.34
2022-11-21T04:23:44.303Z,100628.03
2022-11-21T04:26:12.517Z,100639.56
2022-11-21T04:28:40.741Z,100642.06
2022-11-21T04:31:11.300Z,100642.91
2022-11-21T04:33:40.139Z,100646.47
2022-11-21T04:36:08.983Z,100639.09
2022-11-21T04:38:38.667Z,100642.47
2022-11-21T04:41:06.993Z,100646.75
2022-11-21T04:43:35.250Z,100647.00
2022-11-21T04:46:03.481Z,100646.78
2022-11-21T04:48:32.846Z,100656.22
2022-11-21T04:51:01.326Z,100649.72
2022-11-21T04:53:29.526Z,100654.50
2022-11-21T04:56:00.324Z,100639.19
2022-11-21T04:58:28.491Z,100636.22
2022-11-21T05:00:56.657Z,100638.41
2022-11-21T05:03:24.901Z,100638.06
2022-11-21T05:05:53.102Z,100629.38
2022-11-21T05:08:21.482Z,100614.78
2022-11-21T05:11:07.183Z,100610.25
2022-11-21T05:13:36.842Z,100604.81
2022-11-21T05:16:05.332Z,100601.66
2022-11-21T05:18:35.287Z,100607.91
2022-11-21T05:21:04.199Z,100619.06
2022-11-21T05:23:32.560Z,100616.75
2022-11-21T05:26:00.865Z,100619.94
2022-11-21T05:28:29.030Z,100625.03
2022-11-21T05:30:58.679Z,100630.66
2022-11-21T05:33:27.016Z,100643.56
2022-11-21T05:35:55.186Z,100643.97
2022-11-21T05:38:23.552Z,100644.75
2022-11-21T05:40:53.858Z,100653.47
2022-11-21T05:43:39.200Z,100652.69
2022-11-21T05:46:08.924Z,100651.19
2022-11-21T05:48:37.503Z,100640.97
2022-11-21T05:51:05.740Z,100646.44
2022-11-21T05:53:34.242Z,100635.44
2022-11-21T05:56:05.141Z,100636.72
2022-11-21T05:58:33.638Z,100633.41
2022-11-21T06:01:02.163Z,100635.38
2022-11-21T06:03:33.327Z,100629.66
2022-11-21T06:06:03.606Z,100624.63
2022-11-21T06:08:33.766Z,100606.38
2022-11-21T06:11:02.630Z,100593.47
2022-11-21T06:13:31.198Z,100604.91
2022-11-21T06:16:02.521Z,100608.75
2022-11-21T06:18:33.799Z,100609.59
2022-11-21T06:21:06.091Z,100618.38
2022-11-21T06:23:34.578Z,100618.38
2022-11-21T06:26:07.137Z,100594.41
2022-11-21T06:28:37.639Z,100598.63
2022-11-21T06:31:06.467Z,100616.94
2022-11-21T06:33:36.871Z,100626.78
2022-11-21T06:36:05.923Z,100621.72
2022-11-21T06:38:34.466Z,100624.69
2022-11-21T06:41:06.087Z,100627.59
2022-11-21T06:43:34.318Z,100617.19
2022-11-21T06:46:03.478Z,100613.81
2022-11-21T06:48:32.026Z,100609.34
2022-11-21T06:51:06.087Z,100608.09
2022-11-21T06:53:35.138Z,100607.66
2022-11-21T06:56:03.827Z,100603.28
2022-11-21T06:58:32.297Z,100607.81
2022-11-21T07:01:05.772Z,100613.97
2022-11-21T07:03:34.108Z,100618.00
2022-11-21T07:06:04.451Z,100621.38
2022-11-21T07:08:35.597Z,100608.53
2022-11-21T07:11:24.066Z,100614.56
2022-11-21T07:13:52.996Z,100602.31
2022-11-21T07:16:21.203Z,100613.06
2022-11-21T07:18:49.459Z,100613.06
2022-11-21T07:21:19.193Z,100612.63
2022-11-21T07:23:47.333Z,100617.22
2022-11-21T07:26:15.731Z,100608.34
2022-11-21T07:28:44.356Z,100622.22
2022-11-21T07:31:14.244Z,100628.56
2022-11-21T07:33:44.496Z,100624.78
2022-11-21T07:36:12.988Z,100609.28
2022-11-21T07:38:43.034Z,100611.66
2022-11-21T07:41:11.409Z,100629.06
2022-11-21T07:43:40.913Z,100631.59
2022-11-21T07:46:09.147Z,100630.50
2022-11-21T07:48:37.448Z,100629.53
2022-11-21T07:51:07.047Z,100633.53
2022-11-21T07:53:35.355Z,100629.97
2022-11-21T07:56:05.143Z,100630.22
2022-11-21T07:58:33.321Z,100625.00
2022-11-21T08:01:04.749Z,100621.22
2022-11-21T08:03:33.145Z,100617.84
2022-11-21T08:06:02.872Z,100615.53
2022-11-21T08:08:31.271Z,100618.19
2022-11-21T08:10:59.670Z,100615.72
2022-11-21T08:13:30.896Z,100613.22
2022-11-21T08:15:59.076Z,100614.94
2022-11-21T08:18:27.308Z,100620.34
2022-11-21T08:20:56.223Z,100619.28
2022-11-21T08:23:24.683Z,100624.56
2022-11-21T08:25:53.116Z,100627.97
2022-11-21T08:28:21.456Z,100625.28
2022-11-21T08:30:51.042Z,100619.34
2022-11-21T08:33:19.330Z,100611.63
2022-11-21T08:35:47.724Z,100614.56
2022-11-21T08:38:16.002Z,100616.72
2022-11-21T08:40:44.147Z,100620.88
2022-11-21T08:43:12.670Z,100629.28
2022-11-21T08:45:40.860Z,100614.16
2022-11-21T08:48:12.822Z,100612.09
2022-11-21T08:50:41.133Z,100614.22
2022-11-21T08:53:09.365Z,100621.75
2022-11-21T08:55:37.977Z,100603.91
2022-11-21T08:58:06.242Z,100605.34
2022-11-21T09:00:34.748Z,100608.78
2022-11-21T09:03:05.859Z,100606.22
2022-11-21T09:05:35.628Z,100608.13
2022-11-21T09:08:03.962Z,100603.13
2022-11-21T09:10:32.241Z,100607.94
2022-11-21T09:13:00.693Z,100598.03
2022-11-21T09:15:47.912Z,100590.47
2022-11-21T09:18:16.303Z,100585.25
2022-11-21T09:20:46.355Z,100594.91
2022-11-21T09:23:16.072Z,100593.88
2022-11-21T09:25:44.807Z,100595.53
2022-11-21T09:28:14.216Z,100598.47
2022-11-21T09:30:43.469Z,100600.34
2022-11-21T09:33:13.104Z,100597.41
2022-11-21T09:35:41.330Z,100597.63
2022-11-21T09:38:11.088Z,100590.72
2022-11-21T09:40:43.548Z,100584.34
2022-11-21T09:43:31.508Z,100576.59
2022-11-21T09:46:03.483Z,100579.56
2022-11-21T09:48:34.674Z,100574.72
2022-11-21T09:51:06.394Z,100566.72
2022-11-21T09:53:38.381Z,100580.56
2022-11-21T09:56:08.790Z,100565.88
2022-11-21T09:58:41.224Z,100562.28
2022-11-21T10:01:12.738Z,100572.16
2022-11-21T10:03:43.754Z,100555.75
2022-11-21T10:06:18.152Z,100553.22
2022-11-21T10:08:55.992Z,100556.53
2022-11-21T10:11:33.119Z,100543.97
2022-11-21T10:14:09.945Z,100552.81
2022-11-21T10:16:45.286Z,100549.03
2022-11-21T10:19:24.900Z,100548.41
2022-11-21T10:22:18.384Z,100559.56
2022-11-21T10:24:53.884Z,100544.78
2022-11-21T10:27:29.029Z,100554.06
2022-11-21T10:30:00.016Z,100551.13
2022-11-21T10:32:31.297Z,100534.31
2022-11-21T10:35:03.340Z,100543.38
2022-11-21T10:37:36.876Z,100544.41
2022-11-21T10:40:19.053Z,100541.69
2022-11-21T10:42:51.569Z,100536.88
2022-11-21T10:45:19.644Z,100531.78
2022-11-21T10:47:49.315Z,100532.44
2022-11-21T10:50:27.498Z,100529.69
2022-11-21T10:53:24.108Z,100530.94
2022-11-21T10:56:01.928Z,100533.47
2022-11-21T10:58:37.446Z,100533.22
2022-11-21T11:01:05.868Z,100518.75
2022-11-21T11:03:34.529Z,100513.28
2022-11-21T11:06:02.659Z,100515.38
2022-11-21T11:08:32.095Z,100511.16
2022-11-21T11:11:06.642Z,100507.97
2022-11-21T11:13:46.209Z,100500.19
2022-11-21T11:16:17.575Z,100501.84
2022-11-21T11:18:49.120Z,100502.25
2022-11-21T11:21:20.672Z,100501.00
2022-11-21T11:23:50.343Z,100511.97
2022-11-21T11:26:25.465Z,100494.69
2022-11-21T11:28:54.301Z,100500.16
2022-11-21T11:31:22.447Z,100499.38
2022-11-21T11:33:55.481Z,100489.72
2022-11-21T11:36:36.188Z,100476.72
2022-11-21T11:39:11.130Z,100490.59
2022-11-21T11:42:20.301Z,100485.97
2022-11-21T11:45:18.005Z,100480.06
2022-11-21T11:47:54.828Z,100488.88
2022-11-21T11:50:26.562Z,100492.69
2022-11-21T11:53:00.327Z,100488.88
2022-11-21T11:55:35.470Z,100488.44
2022-11-21T11:58:09.342Z,100483.16
2022-11-21T12:00:42.879Z,100484.38
2022-11-21T12:03:16.425Z,100482.13
2022-11-21T12:05:54.468Z,100482.56
2022-11-21T12:08:43.328Z,100470.59
2022-11-21T12:11:44.445Z,100469.97
2022-11-21T12:14:51.900Z,100469.91
2022-11-21T12:17:23.393Z,100463.41
2022-11-21T12:19:53.831Z,100462.31
2022-11-21T12:22:22.319Z,100479.91
2022-11-21T12:24:50.635Z,100482.88
2022-11-21T12:27:26.150Z,100500.94
2022-11-21T12:30:16.268Z,100495.00
2022-11-21T12:32:57.135Z,100491.69
2022-11-21T12:35:36.032Z,100495.44
2022-11-21T12:38:14.016Z,100496.72
2022-11-21T12:40:49.816Z,100488.53
2022-11-21T12:43:25.720Z,100486.22
2022-11-21T12:46:01.217Z,100495.91
2022-11-21T12:48:57.754Z,100492.16
2022-11-21T12:52:10.601Z,100502.84
2022-11-21T12:54:57.462Z,100502.81
2022-11-21T12:57:34.570Z,100490.41
2022-11-21T13:00:11.985Z,100488.94
2022-11-21T13:02:51.571Z,100489.50
2022-11-21T13:05:26.459Z,100497.13
2022-11-21T13:08:03.234Z,100495.00
2022-11-21T13:10:31.740Z,100496.94
2022-11-21T13:13:02.141Z,100490.34
2022-11-21T13:15:38.453Z,100495.44
2022-11-21T13:18:18.753Z,100481.13
2022-11-21T13:20:49.873Z,100475.28
2022-11-21T13:23:42.008Z,100471.06
2022-11-21T13:26:47.485Z,100464.34
2022-11-21T13:29:16.277Z,100468.09
2022-11-21T13:31:44.661Z,100465.72
2022-11-21T13:34:39.115Z,100475.19
2022-11-21T13:37:07.437Z,100484.88
2022-11-21T13:39:37.189Z,100481.94
2022-11-21T13:42:30.831Z,100476.72
2022-11-21T13:44:59.296Z,100474.81
2022-11-21T13:47:56.236Z,100476.50
2022-11-21T13:50:33.149Z,100470.59
2022-11-21T13:53:07.480Z,100479.88
2022-11-21T13:55:43.454Z,100481.56
2022-11-21T13:58:23.486Z,100485.31
2022-11-21T14:01:07.320Z,100486.59
2022-11-21T14:03:56.281Z,100484.09
2022-11-21T14:06:34.940Z,100476.56
2022-11-21T14:09:09.674Z,100486.03
2022-11-21T14:11:41.420Z,100475.31
2022-11-21T14:14:10.873Z,100483.91
2022-11-21T14:16:44.179Z,100482.34
2022-11-21T14:19:15.158Z,100477.31
2022-11-21T14:21:47.180Z,100471.44
2022-11-21T14:24:18.133Z,100468.28
2022-11-21T14:26:48.393Z,100470.16
2022-11-21T14:29:22.767Z,100457.97
2022-11-21T14:31:51.716Z,100455.06
2022-11-21T14:34:27.498Z,100452.94
2022-11-21T14:36:59.892Z,100452.16
2022-11-21T14:39:37.362Z,100445.00
2022-11-21T14:42:13.731Z,100452.94
2022-11-21T14:44:42.383Z,100453.13
2022-11-21T14:47:21.234Z,100458.81
2022-11-21T14:49:52.156Z,100460.47
2022-11-21T14:52:25.781Z,100468.50
2022-11-21T14:57:44.967Z,100460.53
2022-11-21T15:00:57.296Z,100471.06
2022-11-21T15:03:16.694Z,100464.72
2022-11-21T15:06:02.215Z,100473.56
2022-11-21T15:11:26.189Z,100476.03
2022-11-21T15:14:15.847Z,100473.97
2022-11-21T15:16:44.869Z,100464.34
2022-11-21T15:19:13.209Z,100462.22
2022-11-21T15:21:46.461Z,100451.50
2022-11-21T15:24:28.030Z,100456.78
2022-11-21T15:26:56.447Z,100454.66
2022-11-21T15:29:24.716Z,100451.69
2022-11-21T15:32:14.070Z,100439.31
2022-11-21T15:34:44.563Z,100448.75
2022-11-21T15:37:16.539Z,100444.56
2022-11-21T15:39:48.460Z,100448.75
2022-11-21T15:42:30.617Z,100446.28
2022-11-21T15:45:00.043Z,100441.22
2022-11-21T15:47:28.686Z,100445.78
2022-11-21T15:49:57.143Z,100437.16
2022-11-21T15:52:25.465Z,100437.81
2022-11-21T15:54:55.143Z,100435.31
2022-11-21T15:57:23.591Z,100426.72
2022-11-21T15:59:53.224Z,100423.97
2022-11-21T16:02:21.715Z,100425.25
2022-11-21T16:04:50.043Z,100436.94
2022-11-21T16:07:18.382Z,100430.28
2022-11-21T16:09:47.869Z,100417.31
2022-11-21T16:12:17.816Z,100418.72
2022-11-21T16:14:48.056Z,100416.03
2022-11-21T16:17:16.388Z,100414.75
2022-11-21T16:19:44.698Z,100422.22
2022-11-21T16:22:12.986Z,100422.72
2022-11-21T16:24:41.166Z,100416.44
2022-11-21T16:27:09.452Z,100421.03
2022-11-21T16:29:39.062Z,100414.13
2022-11-21T16:32:07.654Z,100423.13
2022-11-21T16:34:36.332Z,100422.28
2022-11-21T16:37:07.497Z,100413.53
2022-11-21T16:39:36.293Z,100420.06
2022-11-21T16:42:04.563Z,100425.06
2022-11-21T16:44:32.934Z,100435.38
2022-11-21T16:47:08.144Z,100443.13
2022-11-21T16:49:36.760Z,100439.50
2022-11-21T16:52:05.081Z,100433.66
2022-11-21T16:54:33.330Z,100438.66
2022-11-21T16:57:01.582Z,100444.09
2022-11-21T16:59:30.170Z,100436.59
2022-11-21T17:01:58.573Z,100421.06
2022-11-21T17:04:28.185Z,100425.06
2022-11-21T17:06:56.746Z,100430.75
2022-11-21T17:09:24.992Z,100420.84
2022-11-21T17:11:53.289Z,100415.59
2022-11-21T17:14:21.912Z,100416.03
2022-11-21T17:16:51.227Z,100409.25
2022-11-21T17:19:19.568Z,100412.66
2022-11-21T17:21:49.291Z,100406.41
2022-11-21T17:24:18.183Z,100403.44
2022-11-21T17:26:46.416Z,100404.28
2022-11-21T17:29:15.295Z,100403.06
2022-11-21T17:31:43.680Z,100400.72
2022-11-21T17:34:12.004Z,100395.47
2022-11-21T17:36:40.361Z,100397.19
2022-11-21T17:39:10.418Z,100387.94
2022-11-21T17:41:39.681Z,100380.38
2022-11-21T17:44:08.621Z,100387.91
2022-11-21T17:46:37.064Z,100371.94
2022-11-21T17:49:05.843Z,100381.63
2022-11-21T17:51:35.175Z,100379.06
2022-11-21T17:54:03.669Z,100383.91
2022-11-21T17:56:34.417Z,100387.91
2022-11-21T17:59:03.121Z,100378.66
2022-11-21T18:01:31.625Z,100386.69
2022-11-21T18:04:01.103Z,100393.78
2022-11-21T18:06:30.735Z,100393.78
2022-11-21T18:08:58.946Z,100400.09
2022-11-21T18:11:34.439Z,100394.19
2022-11-21T18:14:08.464Z,100395.03
2022-11-21T18:16:36.709Z,100393.97
2022-11-21T18:19:06.063Z,100393.78
2022-11-21T18:21:36.754Z,100384.56
2022-11-21T18:24:05.557Z,100380.63
2022-11-21T18:26:35.049Z,100388.75
2022-11-21T18:29:34.715Z,100382.88
2022-11-21T18:31:54.215Z,100374.91
2022-11-21T18:34:22.825Z,100367.28
2022-11-21T18:36:51.122Z,100369.84
2022-11-21T18:39:19.449Z,100363.78
2022-11-21T18:41:48.048Z,100359.81
2022-11-21T18:44:21.684Z,100372.78
2022-11-21T18:46:51.315Z,100370.44
2022-11-21T18:49:21.052Z,100365.44
2022-11-21T18:51:49.341Z,100366.09
2022-11-21T18:54:17.789Z,100362.66
2022-11-21T18:56:47.225Z,100359.72
2022-11-21T18:59:18.436Z,100365.22
2022-11-21T19:01:47.361Z,100356.41
2022-11-21T19:04:16.035Z,100352.22
2022-11-21T19:06:46.025Z,100349.28
2022-11-21T19:09:15.279Z,100344.25
2022-11-21T19:11:43.540Z,100343.19
2022-11-21T19:14:11.989Z,100331.03
2022-11-21T19:16:40.639Z,100319.50
2022-11-21T19:22:01.275Z,100323.69
2022-11-21T19:24:29.533Z,100323.22
2022-11-21T19:26:57.845Z,100323.66
2022-11-21T19:29:26.492Z,100331.59
2022-11-21T19:31:55.953Z,100318.81
2022-11-21T19:34:24.224Z,100317.16
2022-11-21T19:36:54.239Z,100317.97
2022-11-21T19:39:23.904Z,100313.56
2022-11-21T19:41:52.394Z,100305.13
2022-11-21T19:44:21.031Z,100314.44
2022-11-21T19:46:49.714Z,100313.16
2022-11-21T19:49:20.366Z,100301.88
2022-11-21T19:51:48.671Z,100310.69
2022-11-21T19:54:17.253Z,100315.28
2022-11-21T19:56:46.860Z,100320.75
2022-11-21T19:59:15.645Z,100307.72
2022-11-21T20:01:48.111Z,100312.50
2022-11-21T20:04:19.769Z,100298.50
2022-11-21T20:06:48.324Z,100287.16
2022-11-21T20:09:18.483Z,100304.78
2022-11-21T20:11:49.441Z,100299.53
2022-11-21T20:14:21.906Z,100302.06
2022-11-21T20:16:53.418Z,100289.28
2022-11-21T20:19:25.109Z,100292.63
2022-11-21T20:21:53.719Z,100287.59
2022-11-21T20:24:22.035Z,100292.00
2022-11-21T20:26:52.138Z,100281.72
2022-11-21T20:29:20.559Z,100280.44
2022-11-21T20:31:49.084Z,100283.16
2022-11-21T20:34:17.654Z,100287.59
2022-11-21T20:36:46.865Z,100291.63
2022-11-21T20:39:16.549Z,100290.34
2022-11-21T20:41:45.530Z,100283.81
2022-11-21T20:47:06.643Z,100285.53
2022-11-21T20:49:35.202Z,100270.63
2022-11-21T21:32:02.798Z,100253.63
2022-11-21T21:34:32.908Z,100247.31
2022-11-21T21:37:01.213Z,100257.59
2022-11-21T21:39:29.388Z,100253.63
2022-11-21T21:41:58.544Z,100252.16
2022-11-21T21:44:32.772Z,100248.16
2022-11-21T21:47:02.760Z,100250.25
2022-11-21T21:49:31.215Z,100241.47
2022-11-21T21:51:59.665Z,100241.03
2022-11-21T21:54:30.581Z,100244.81
2022-11-21T21:56:59.070Z,100238.09
2022-11-21T21:59:27.334Z,100242.31
2022-11-21T22:01:55.613Z,100237.28
2022-11-21T22:04:25.297Z,100249.66
2022-11-21T22:06:53.744Z,100241.28
2022-11-21T22:09:22.084Z,100246.91
2022-11-21T22:11:50.409Z,100242.13
2022-11-21T22:14:18.676Z,100254.47
2022-11-21T22:16:47.093Z,100239.78
2022-11-21T22:19:15.695Z,100236.44
2022-11-21T22:21:45.396Z,100232.25
2022-11-21T22:24:30.809Z,100229.75
2022-11-21T22:26:59.137Z,100223.22
2022-11-21T22:29:27.611Z,100219.03
2022-11-21T22:31:56.020Z,100210.00
2022-11-21T22:34:24.442Z,100204.53
2022-11-21T22:36:54.152Z,100195.53
2022-11-21T22:39:22.370Z,100190.47
2022-11-21T22:41:50.572Z,100181.69
2022-11-21T22:44:19.323Z,100177.72
2022-11-21T22:46:47.509Z,100170.56
2022-11-21T22:49:15.829Z,100166.81
2022-11-21T22:51:45.357Z,100169.75
2022-11-21T22:54:15.094Z,100151.69
2022-11-21T22:56:43.354Z,100144.13
2022-11-21T22:59:13.919Z,100140.78
2022-11-21T23:01:42.178Z,100131.56
2022-11-21T23:04:14.700Z,100117.72
2022-11-21T23:06:45.790Z,100114.34
2022-11-21T23:09:15.460Z,100101.38
2022-11-21T23:11:43.689Z,100106.59
2022-11-21T23:14:11.986Z,100110.16
2022-11-21T23:16:40.283Z,100112.66
2022-11-21T23:19:08.598Z,100112.25
2022-11-21T23:21:36.940Z,100103.03
2022-11-21T23:24:05.650Z,100107.22
2022-11-21T23:26:35.549Z,100105.34
2022-11-21T23:29:08.491Z,100097.16
2022-11-21T23:31:37.392Z,100112.25
2022-11-21T23:34:05.931Z,100092.53
2022-11-21T23:36:34.182Z,100103.44
2022-11-21T23:39:02.328Z,100099.88
2022-11-21T23:41:30.682Z,100102.16
2022-11-21T23:44:00.474Z,100090.41
2022-11-21T23:46:28.752Z,100092.94
2022-11-21T23:48:57.314Z,100098.38
2022-11-21T23:51:25.531Z,100083.72
2022-11-21T23:53:54.196Z,100078.41
2022-11-21T23:56:22.769Z,100084.50
2022-11-21T23:58:51.385Z,100081.16
